Time;durP1;ratioP1;P1;durP2;ratioP2;P2;SDS_P1;SDS_P2;PMS_P1;PMS_P2;Temp;Humidity;BMP_temperature;BMP_pressure;BME280_temperature;BME280_humidity;BME280_pressure;Samples;Min_cycle;Max_cycle;Signal;HPM_P1;HPM_P2
2022/01/03 00:00:45;;;;;;;6.32;1.40;;;8.50;99.90;;;;;;5129052;28;20156;-73
2022/01/03 00:03:14;;;;;;;5.70;1.10;;;8.80;99.90;;;;;;5125044;28;20036;-73
2022/01/03 00:05:40;;;;;;;4.65;1.00;;;9.00;99.90;;;;;;5139073;27;20043;-74
2022/01/03 00:08:06;;;;;;;5.30;1.63;;;9.30;99.90;;;;;;5110081;28;20515;-71
2022/01/03 00:10:33;;;;;;;6.95;1.88;;;9.20;99.90;;;;;;5128807;28;20088;-71
2022/01/03 00:13:01;;;;;;;13.55;2.17;;;9.20;99.90;;;;;;5128909;28;20047;-73
2022/01/03 00:15:27;;;;;;;10.05;2.00;;;9.30;99.90;;;;;;5121901;27;20039;-71
2022/01/03 00:17:53;;;;;;;5.85;1.80;;;9.60;99.90;;;;;;5110974;27;20115;-72
2022/01/03 00:20:21;;;;;;;10.55;2.10;;;9.30;99.90;;;;;;5132712;27;20650;-74
2022/01/03 00:22:55;;;;;;;11.68;2.67;;;9.60;99.90;;;;;;5111372;28;20036;-73
2022/01/03 00:25:22;;;;;;;7.28;2.20;;;9.40;99.90;;;;;;5125166;27;20054;-72
2022/01/03 00:27:57;;;;;;;8.73;2.03;;;10.10;99.90;;;;;;5132272;27;20046;-72
2022/01/03 00:30:25;;;;;;;6.28;2.53;;;9.60;99.90;;;;;;5114501;27;20054;-72
2022/01/03 00:32:51;;;;;;;12.73;2.58;;;10.10;99.90;;;;;;5112300;28;20043;-73
2022/01/03 00:35:19;;;;;;;10.50;2.63;;;10.20;99.90;;;;;;5132680;27;20035;-72
2022/01/03 00:37:46;;;;;;;8.68;2.47;;;9.60;99.90;;;;;;5131702;27;20027;-72
2022/01/03 00:40:13;;;;;;;11.63;2.28;;;10.00;99.90;;;;;;5132197;27;20039;-72
2022/01/03 00:42:40;;;;;;;10.45;2.55;;;10.10;99.90;;;;;;5132113;27;20031;-73
2022/01/03 00:45:06;;;;;;;7.97;2.58;;;9.60;99.90;;;;;;5115848;27;20386;-73
2022/01/03 00:47:33;;;;;;;15.60;3.40;;;9.70;99.90;;;;;;5132063;27;20125;-71
2022/01/03 00:50:07;;;;;;;7.40;2.95;;;10.00;99.90;;;;;;5114703;27;20043;-71
2022/01/03 00:52:33;;;;;;;13.07;2.75;;;10.30;99.90;;;;;;5131940;27;20053;-72
2022/01/03 00:55:00;;;;;;;8.65;2.55;;;9.70;99.90;;;;;;5131938;27;20047;-73
2022/01/03 00:57:57;;;;;;;11.82;3.22;;;10.30;99.90;;;;;;5132481;27;20043;-74
2022/01/03 01:00:22;;;;;;;18.33;2.95;;;10.10;99.90;;;;;;5131044;27;20046;-72
2022/01/03 01:03:05;;;;;;;15.35;2.60;;;10.00;99.90;;;;;;5131796;27;20507;-73
2022/01/03 01:05:32;;;;;;;14.85;2.60;;;9.70;99.90;;;;;;5131774;27;20039;-74
2022/01/03 01:07:57;;;;;;;16.27;2.63;;;9.60;99.90;;;;;;5114607;27;20064;-72
2022/01/03 01:10:29;;;;;;;8.93;2.30;;;9.70;99.90;;;;;;5114657;27;20126;-71
2022/01/03 01:12:56;;;;;;;13.30;2.72;;;9.90;99.90;;;;;;5131067;27;20192;-72
2022/01/03 01:15:22;;;;;;;12.23;2.53;;;9.90;99.90;;;;;;5131431;27;20043;-72
2022/01/03 01:17:48;;;;;;;12.00;2.00;;;9.50;99.90;;;;;;5121958;27;20040;-73
2022/01/03 01:20:16;;;;;;;14.43;3.20;;;9.90;99.90;;;;;;5124941;27;20198;-72
2022/01/03 01:22:42;;;;;;;19.55;3.15;;;9.90;99.90;;;;;;5114553;27;20038;-72
2022/01/03 01:27:47;;;;;;;11.65;3.22;;;9.60;99.90;;;;;;5130702;27;20553;-71
2022/01/03 01:30:13;;;;;;;15.48;3.03;;;9.90;99.90;;;;;;5129932;27;20042;-71
2022/01/03 01:32:46;;;;;;;15.80;3.90;;;9.50;99.90;;;;;;5130427;27;20479;-71
2022/01/03 01:35:13;;;;;;;13.00;2.70;;;9.50;99.90;;;;;;5130647;27;20046;-71
2022/01/03 01:37:42;;;;;;;13.75;2.30;;;9.80;99.90;;;;;;5129922;27;20123;-75
2022/01/03 01:40:08;;;;;;;20.85;2.97;;;9.50;99.90;;;;;;5112377;27;20082;-71
2022/01/03 01:42:39;;;;;;;18.30;3.85;;;9.70;99.90;;;;;;5128094;27;20402;-74
2022/01/03 01:45:08;;;;;;;16.85;2.95;;;9.50;99.90;;;;;;5129100;27;20413;-75
2022/01/03 01:47:39;;;;;;;17.05;2.72;;;9.50;99.90;;;;;;5130753;27;20062;-71
2022/01/03 01:50:07;;;;;;;19.15;2.38;;;9.50;99.90;;;;;;5127424;27;20039;-72
2022/01/03 01:52:35;;;;;;;18.05;3.10;;;9.50;99.90;;;;;;5130026;27;20077;-73
2022/01/03 01:55:06;;;;;;;12.20;3.00;;;9.50;99.90;;;;;;5112668;27;20089;-73
2022/01/03 01:58:14;;;;;;;13.60;2.97;;;9.80;99.90;;;;;;5128713;27;20053;-71
2022/01/03 02:00:44;;;;;;;15.27;3.20;;;9.70;99.90;;;;;;5109307;27;20072;-71
2022/01/03 02:03:30;;;;;;;18.65;2.80;;;9.60;99.90;;;;;;5129241;27;20088;-69
2022/01/03 02:06:08;;;;;;;18.45;3.40;;;9.40;99.90;;;;;;5129662;27;20055;-70
2022/01/03 02:08:42;;;;;;;17.98;3.17;;;9.60;99.90;;;;;;5113022;27;20046;-74
2022/01/03 02:11:24;;;;;;;18.35;3.72;;;9.50;99.90;;;;;;5130709;27;20408;-72
2022/01/03 02:13:51;;;;;;;16.20;3.30;;;9.40;99.90;;;;;;5129880;27;20418;-75
2022/01/03 02:16:17;;;;;;;14.60;2.63;;;9.70;99.90;;;;;;5129881;27;20096;-73
2022/01/03 02:18:43;;;;;;;20.05;3.25;;;9.80;99.90;;;;;;5128136;27;20039;-73
2022/01/03 02:21:09;;;;;;;11.98;2.35;;;9.50;99.90;;;;;;5130010;27;20039;-70
2022/01/03 02:23:35;;;;;;;17.02;3.30;;;9.50;99.90;;;;;;5129627;27;20046;-72
2022/01/03 02:26:01;;;;;;;15.20;2.65;;;9.80;99.90;;;;;;5129110;27;20039;-72
2022/01/03 02:28:27;;;;;;;16.30;2.70;;;9.80;99.90;;;;;;5128549;27;20035;-71
2022/01/03 02:30:53;;;;;;;12.27;2.95;;;9.80;99.90;;;;;;5128186;27;20411;-70
2022/01/03 02:33:19;;;;;;;20.45;3.95;;;9.70;99.90;;;;;;5129211;27;20039;-71
2022/01/03 02:35:45;;;;;;;17.63;3.53;;;9.60;99.90;;;;;;5129693;27;20039;-69
2022/01/03 02:38:12;;;;;;;18.45;3.38;;;9.60;99.90;;;;;;5128940;27;20118;-73
2022/01/03 02:40:38;;;;;;;13.98;2.92;;;9.60;99.90;;;;;;5112055;27;20147;-71
2022/01/03 02:43:04;;;;;;;20.27;3.47;;;9.90;99.90;;;;;;5081915;27;20503;-73
2022/01/03 02:45:31;;;;;;;14.75;3.08;;;9.80;99.90;;;;;;5129889;27;20035;-72
2022/01/03 02:48:00;;;;;;;13.48;2.75;;;9.70;99.90;;;;;;5108448;28;20035;-72
2022/01/03 02:50:29;;;;;;;18.33;3.67;;;9.50;99.90;;;;;;5129083;27;20112;-70
2022/01/03 02:52:55;;;;;;;14.35;3.28;;;9.50;99.90;;;;;;5127481;27;20122;-71
2022/01/03 02:55:23;;;;;;;17.63;2.83;;;9.60;99.90;;;;;;5112088;28;20043;-71
2022/01/03 02:57:51;;;;;;;14.88;2.92;;;9.40;99.90;;;;;;5126846;27;20047;-74
2022/01/03 03:00:26;;;;;;;21.30;3.60;;;9.70;99.90;;;;;;5124948;27;20039;-72
2022/01/03 03:02:52;;;;;;;19.27;3.55;;;9.50;99.90;;;;;;5128434;27;20039;-72
2022/01/03 03:05:18;;;;;;;17.10;2.97;;;9.70;99.90;;;;;;5112123;28;20047;-72
2022/01/03 03:07:46;;;;;;;26.92;4.85;;;9.50;99.90;;;;;;5129103;28;20035;-73
2022/01/03 03:10:15;;;;;;;14.13;3.97;;;9.40;99.90;;;;;;5128971;28;20097;-71
2022/01/03 03:12:41;;;;;;;16.73;3.15;;;9.50;99.90;;;;;;5128543;28;20070;-73
2022/01/03 03:15:08;;;;;;;21.13;3.53;;;9.40;99.90;;;;;;5129143;28;20074;-73
2022/01/03 03:17:35;;;;;;;16.33;3.47;;;9.60;99.90;;;;;;5144782;27;20080;-72
2022/01/03 03:20:15;;;;;;;14.68;3.25;;;9.50;99.90;;;;;;5110075;28;20044;-72
2022/01/03 03:22:41;;;;;;;18.23;3.03;;;9.30;99.90;;;;;;5129729;28;20050;-72
2022/01/03 03:25:10;;;;;;;17.48;3.60;;;9.30;99.90;;;;;;5128964;28;20051;-71
2022/01/03 03:27:43;;;;;;;17.05;3.28;;;9.40;99.90;;;;;;5129562;28;20356;-71
2022/01/03 03:30:23;;;;;;;15.00;3.00;;;9.40;99.90;;;;;;5111722;28;20092;-72
2022/01/03 03:32:55;;;;;;;17.88;3.60;;;9.40;99.90;;;;;;5128286;28;20067;-72
2022/01/03 03:35:22;;;;;;;23.77;4.28;;;9.40;99.90;;;;;;5112476;28;20035;-74
2022/01/03 03:37:48;;;;;;;23.23;3.85;;;9.10;99.90;;;;;;5112269;28;20112;-73
2022/01/03 03:40:14;;;;;;;20.05;3.53;;;9.30;99.90;;;;;;5128206;28;20035;-72
2022/01/03 03:42:41;;;;;;;17.42;4.10;;;9.20;99.90;;;;;;5110139;28;20031;-70
2022/01/03 03:45:08;;;;;;;19.55;3.55;;;9.10;99.90;;;;;;5111273;28;20379;-71
2022/01/03 03:47:35;;;;;;;25.15;4.45;;;9.20;99.90;;;;;;5129698;28;20104;-70
2022/01/03 03:50:01;;;;;;;15.13;3.35;;;9.00;99.90;;;;;;5111835;28;20043;-73
2022/01/03 03:52:27;;;;;;;21.40;3.45;;;9.20;99.90;;;;;;5111252;28;20051;-72
2022/01/03 03:54:53;;;;;;;24.10;3.50;;;9.00;99.90;;;;;;5118213;27;20158;-71
2022/01/03 03:57:19;;;;;;;16.63;3.38;;;9.10;99.90;;;;;;5136610;27;20043;-71
2022/01/03 03:59:44;;;;;;;17.83;4.00;;;8.90;99.90;;;;;;5119025;27;20410;-73
2022/01/03 04:02:10;;;;;;;21.27;3.20;;;9.00;99.90;;;;;;5119166;27;20027;-71
2022/01/03 04:04:36;;;;;;;13.43;3.08;;;9.20;99.90;;;;;;5130553;27;20077;-74
2022/01/03 04:07:02;;;;;;;20.20;4.07;;;8.90;99.90;;;;;;5134695;27;20367;-72
2022/01/03 04:09:28;;;;;;;19.08;3.92;;;9.10;99.90;;;;;;5115412;27;20039;-74
2022/01/03 04:11:54;;;;;;;20.02;3.33;;;8.90;99.90;;;;;;5131002;27;20378;-71
2022/01/03 04:14:19;;;;;;;12.80;3.58;;;9.10;99.90;;;;;;5118475;27;20031;-72
2022/01/03 04:16:45;;;;;;;17.90;3.60;;;9.10;99.90;;;;;;5135727;27;20126;-71
2022/01/03 04:19:11;;;;;;;23.02;4.07;;;9.00;99.90;;;;;;5116110;27;20050;-71
2022/01/03 04:21:39;;;;;;;18.45;4.13;;;9.10;99.90;;;;;;5136041;27;20401;-74
2022/01/03 04:24:09;;;;;;;13.65;3.20;;;9.10;99.90;;;;;;5135647;27;20038;-71
2022/01/03 04:26:37;;;;;;;17.00;3.20;;;9.00;99.90;;;;;;5136271;27;20352;-73
2022/01/03 04:29:04;;;;;;;20.60;4.07;;;9.10;99.90;;;;;;5118248;27;20035;-70
2022/01/03 04:31:30;;;;;;;23.27;3.38;;;9.10;99.90;;;;;;5118777;27;20038;-71
2022/01/03 04:33:57;;;;;;;19.83;3.90;;;9.00;99.90;;;;;;5135179;27;20449;-73
2022/01/03 04:36:23;;;;;;;17.85;3.85;;;8.80;99.90;;;;;;5116591;27;20039;-73
2022/01/03 04:38:50;;;;;;;18.73;3.85;;;9.10;99.90;;;;;;5116571;27;20043;-71
2022/01/03 04:41:16;;;;;;;19.90;3.40;;;9.00;99.90;;;;;;5135694;27;20030;-72
2022/01/03 04:43:41;;;;;;;18.67;4.40;;;9.00;99.90;;;;;;5134897;27;20474;-74
2022/01/03 04:46:10;;;;;;;20.38;3.20;;;9.00;99.90;;;;;;5115086;27;20042;-70
2022/01/03 04:48:38;;;;;;;22.60;3.92;;;9.00;99.90;;;;;;5113395;27;20051;-71
2022/01/03 04:51:05;;;;;;;17.55;3.22;;;9.10;99.90;;;;;;5117533;27;20382;-72
2022/01/03 04:53:33;;;;;;;19.60;3.92;;;9.00;99.90;;;;;;5115006;27;20463;-72
2022/01/03 04:55:58;;;;;;;22.13;3.83;;;9.00;99.90;;;;;;5129486;27;20066;-73
2022/01/03 04:58:24;;;;;;;15.13;3.30;;;9.20;99.90;;;;;;5113778;27;20417;-73
2022/01/03 05:00:50;;;;;;;20.70;3.40;;;9.00;99.90;;;;;;5113757;27;20035;-74
2022/01/03 05:03:16;;;;;;;13.98;3.20;;;9.10;99.90;;;;;;5114237;27;20038;-72
2022/01/03 05:05:42;;;;;;;19.75;3.65;;;9.20;99.90;;;;;;5113757;27;20088;-69
2022/01/03 05:08:09;;;;;;;24.60;4.18;;;9.10;99.90;;;;;;5131305;27;20027;-73
2022/01/03 05:10:34;;;;;;;20.42;3.78;;;9.20;99.90;;;;;;5148500;27;20039;-73
2022/01/03 05:13:01;;;;;;;22.65;4.03;;;9.10;99.90;;;;;;5131351;27;20039;-72
2022/01/03 05:15:27;;;;;;;21.77;4.30;;;9.10;99.90;;;;;;5093765;27;20027;-70
2022/01/03 05:17:52;;;;;;;23.33;3.30;;;9.20;99.90;;;;;;5090683;28;20526;-71
2022/01/03 05:20:18;;;;;;;20.20;4.30;;;9.30;99.90;;;;;;5112887;27;20053;-72
2022/01/03 05:22:44;;;;;;;25.17;3.92;;;9.30;99.90;;;;;;5131204;27;20114;-74
2022/01/03 05:25:10;;;;;;;19.52;4.32;;;9.30;99.90;;;;;;5113759;27;20126;-73
2022/01/03 05:27:37;;;;;;;23.52;3.35;;;9.00;99.90;;;;;;5118622;27;20134;-72
2022/01/03 05:30:04;;;;;;;18.38;3.83;;;9.10;99.90;;;;;;5127413;27;20051;-72
2022/01/03 05:32:30;;;;;;;18.55;3.58;;;9.10;99.90;;;;;;5144227;27;20042;-72
2022/01/03 05:34:56;;;;;;;22.98;4.28;;;9.10;99.90;;;;;;5130642;27;20420;-71
2022/01/03 05:37:21;;;;;;;21.60;4.43;;;9.20;99.90;;;;;;5130604;27;20039;-74
2022/01/03 05:39:47;;;;;;;23.63;4.65;;;9.20;99.90;;;;;;5129615;27;20066;-75
2022/01/03 05:42:13;;;;;;;22.25;4.85;;;9.20;99.90;;;;;;5107020;27;20039;-73
2022/01/03 05:44:38;;;;;;;19.95;3.78;;;9.10;99.90;;;;;;5130852;27;20500;-73
2022/01/03 05:47:04;;;;;;;24.60;5.00;;;9.10;99.90;;;;;;5113045;27;20039;-73
2022/01/03 05:49:30;;;;;;;28.33;5.00;;;9.10;99.90;;;;;;5093215;27;20047;-72
2022/01/03 05:51:56;;;;;;;18.85;3.75;;;8.90;99.90;;;;;;5112073;27;20071;-70
2022/01/03 05:54:21;;;;;;;21.60;4.63;;;8.90;99.90;;;;;;5095890;27;20434;-73
2022/01/03 05:56:47;;;;;;;20.52;4.05;;;9.00;99.90;;;;;;5105067;27;20055;-73
2022/01/03 05:59:13;;;;;;;20.27;3.25;;;8.90;99.90;;;;;;5109759;28;20084;-74
2022/01/03 06:01:40;;;;;;;21.98;3.83;;;9.00;99.90;;;;;;5128699;27;20464;-73
2022/01/03 06:04:21;;;;;;;21.63;6.47;;;9.00;99.90;;;;;;5130385;27;20087;-71
2022/01/03 06:06:56;;;;;;;24.65;4.03;;;8.90;99.90;;;;;;5098652;27;20428;-75
2022/01/03 06:09:23;;;;;;;17.80;4.28;;;8.90;99.90;;;;;;5130473;27;20771;-72
2022/01/03 06:11:51;;;;;;;23.33;4.05;;;9.00;99.90;;;;;;5130017;27;20035;-71
2022/01/03 06:14:18;;;;;;;22.65;4.43;;;9.10;99.90;;;;;;5128983;27;20479;-70
2022/01/03 06:16:48;;;;;;;28.10;4.97;;;9.00;99.90;;;;;;5129277;27;20042;-68
2022/01/03 06:19:15;;;;;;;19.88;4.50;;;8.90;99.90;;;;;;5112522;27;20375;-72
2022/01/03 06:21:42;;;;;;;26.23;5.10;;;9.20;99.90;;;;;;5129485;27;20046;-69
2022/01/03 06:24:09;;;;;;;30.65;5.05;;;9.00;99.90;;;;;;5129511;27;20036;-72
2022/01/03 06:26:36;;;;;;;23.27;4.55;;;9.20;99.90;;;;;;5108996;27;20035;-73
2022/01/03 06:29:04;;;;;;;27.80;5.05;;;9.10;99.90;;;;;;5127572;27;20077;-70
2022/01/03 06:31:30;;;;;;;32.90;7.15;;;9.10;99.90;;;;;;5117977;27;20054;-74
2022/01/03 06:33:56;;;;;;;13.93;3.63;;;8.90;99.90;;;;;;5112806;27;20161;-70
2022/01/03 06:36:21;;;;;;;32.00;5.25;;;8.90;99.90;;;;;;5129967;27;20133;-70
2022/01/03 06:38:47;;;;;;;26.25;4.50;;;8.90;99.90;;;;;;5128981;27;20071;-71
2022/01/03 06:41:13;;;;;;;24.55;4.53;;;9.10;99.90;;;;;;5076210;28;20123;-71
2022/01/03 06:43:38;;;;;;;36.60;6.43;;;9.10;99.90;;;;;;5093412;28;20031;-74
2022/01/03 06:46:04;;;;;;;26.55;4.03;;;9.10;99.90;;;;;;5112394;27;20043;-72
2022/01/03 06:48:30;;;;;;;32.85;5.45;;;9.20;99.90;;;;;;5129176;27;20054;-72
2022/01/03 06:50:55;;;;;;;17.50;3.65;;;9.00;99.90;;;;;;5130291;27;20099;-74
2022/01/03 06:53:21;;;;;;;24.25;4.85;;;9.20;99.90;;;;;;5129289;27;20536;-74
2022/01/03 06:55:47;;;;;;;22.60;4.53;;;9.00;99.90;;;;;;5103873;28;20101;-71
2022/01/03 06:58:13;;;;;;;20.63;4.85;;;9.20;99.90;;;;;;5090493;28;20048;-73
2022/01/03 07:00:38;;;;;;;20.77;4.65;;;9.00;99.90;;;;;;5109622;28;20027;-70
2022/01/03 07:03:04;;;;;;;24.13;4.47;;;9.00;99.90;;;;;;5109080;28;20039;-71
2022/01/03 07:05:30;;;;;;;22.42;4.15;;;8.90;99.90;;;;;;5089364;28;20040;-74
2022/01/03 07:07:56;;;;;;;22.63;4.32;;;9.00;99.90;;;;;;5093610;28;20051;-71
2022/01/03 07:10:22;;;;;;;25.90;5.03;;;8.90;99.90;;;;;;5108239;28;20062;-73
2022/01/03 07:12:52;;;;;;;20.92;4.22;;;9.00;99.90;;;;;;5092618;28;20392;-73
2022/01/03 07:21:03;;;;;;;22.97;4.57;;;9.00;99.90;;;;;;5084382;28;20636;-72
2022/01/03 07:23:29;;;;;;;27.77;3.95;;;8.70;99.90;;;;;;5090803;28;20036;-73
2022/01/03 07:25:55;;;;;;;31.65;4.63;;;9.00;99.90;;;;;;5106565;28;20093;-74
2022/01/03 07:28:20;;;;;;;26.08;5.05;;;9.00;99.90;;;;;;5113782;28;20039;-72
2022/01/03 07:30:46;;;;;;;20.48;4.05;;;9.10;99.90;;;;;;5094894;28;20044;-73
2022/01/03 07:33:12;;;;;;;32.83;5.32;;;8.90;99.90;;;;;;5114715;28;20068;-72
2022/01/03 07:35:38;;;;;;;23.40;4.57;;;9.10;99.90;;;;;;5113628;28;20035;-70
2022/01/03 07:38:04;;;;;;;37.85;5.82;;;9.10;99.90;;;;;;5081043;28;20088;-72
2022/01/03 07:40:30;;;;;;;29.63;4.60;;;9.00;99.90;;;;;;5114704;28;20023;-70
2022/01/03 07:42:57;;;;;;;25.30;4.88;;;8.90;99.90;;;;;;5093880;28;20032;-74
2022/01/03 07:45:23;;;;;;;27.25;4.50;;;9.10;99.90;;;;;;5113181;28;20554;-75
2022/01/03 07:47:49;;;;;;;28.65;4.28;;;9.20;99.90;;;;;;5087084;28;20050;-73
2022/01/03 07:50:15;;;;;;;20.58;3.78;;;9.10;99.90;;;;;;5094901;28;20027;-72
2022/01/03 07:52:42;;;;;;;38.05;7.00;;;9.10;99.90;;;;;;5113395;28;20483;-72
2022/01/03 07:55:09;;;;;;;32.58;4.88;;;9.20;99.90;;;;;;5116796;27;20043;-74
2022/01/03 07:57:35;;;;;;;21.15;4.05;;;9.00;99.90;;;;;;5137134;27;20050;-72
2022/01/03 08:00:04;;;;;;;18.23;5.10;;;9.20;99.90;;;;;;5118613;27;20043;-72
2022/01/03 08:02:30;;;;;;;22.52;5.20;;;9.10;99.90;;;;;;5136782;27;20034;-74
2022/01/03 08:04:55;;;;;;;23.80;4.35;;;9.00;99.90;;;;;;5117765;27;20039;-73
2022/01/03 08:07:21;;;;;;;22.73;4.03;;;9.20;99.90;;;;;;5137113;27;20045;-74
2022/01/03 08:09:47;;;;;;;28.33;4.07;;;9.00;99.90;;;;;;5096129;27;20046;-74
2022/01/03 08:12:13;;;;;;;25.52;4.68;;;9.30;99.90;;;;;;5101912;27;20043;-74
2022/01/03 08:14:38;;;;;;;29.70;4.95;;;9.10;99.90;;;;;;5137497;27;20045;-75
2022/01/03 08:17:05;;;;;;;22.63;4.68;;;9.10;99.90;;;;;;5112917;27;20118;-72
2022/01/03 08:19:31;;;;;;;23.00;4.90;;;9.30;99.90;;;;;;5133375;27;20083;-74
2022/01/03 08:21:57;;;;;;;21.73;4.05;;;9.10;99.90;;;;;;5098940;27;20034;-73
2022/01/03 08:24:23;;;;;;;28.30;4.50;;;9.40;99.90;;;;;;5135973;27;20091;-71
2022/01/03 08:26:49;;;;;;;26.88;4.68;;;9.30;99.90;;;;;;5138085;27;20404;-72
2022/01/03 08:29:15;;;;;;;23.58;4.57;;;9.30;99.90;;;;;;5119520;27;20485;-72
2022/01/03 08:31:41;;;;;;;26.70;4.50;;;9.20;99.90;;;;;;5137996;27;20069;-73
2022/01/03 08:34:06;;;;;;;28.73;4.53;;;9.40;99.90;;;;;;5118141;27;20070;-74
2022/01/03 08:36:32;;;;;;;26.58;4.68;;;9.50;99.90;;;;;;5097298;27;20500;-74
2022/01/03 08:38:58;;;;;;;17.17;3.92;;;9.50;99.90;;;;;;5114412;27;20038;-73
2022/01/03 08:41:24;;;;;;;23.38;4.25;;;9.30;99.90;;;;;;5099509;27;20157;-72
2022/01/03 08:43:51;;;;;;;26.95;5.18;;;9.60;99.90;;;;;;5115883;27;20035;-72
2022/01/03 08:46:17;;;;;;;36.13;6.00;;;9.60;99.90;;;;;;5119284;27;20066;-73
2022/01/03 08:48:42;;;;;;;25.48;5.05;;;9.60;99.90;;;;;;5119645;27;20073;-72
2022/01/03 08:51:08;;;;;;;23.88;5.55;;;9.40;99.90;;;;;;5086183;27;20039;-72
2022/01/03 08:53:34;;;;;;;23.52;4.25;;;9.40;99.90;;;;;;5103353;27;20461;-72
2022/01/03 08:56:01;;;;;;;25.92;4.03;;;9.50;99.90;;;;;;5137568;27;20063;-74
2022/01/03 08:58:27;;;;;;;19.23;2.85;;;9.70;99.90;;;;;;5135903;27;20054;-74
2022/01/03 09:00:53;;;;;;;29.85;4.15;;;9.70;99.90;;;;;;5120057;27;20064;-72
2022/01/03 09:03:19;;;;;;;22.92;4.40;;;9.70;99.90;;;;;;5137054;27;20129;-74
2022/01/03 09:05:46;;;;;;;26.10;4.78;;;9.50;99.90;;;;;;5137667;27;20470;-71
2022/01/03 09:08:12;;;;;;;23.98;4.43;;;9.50;99.90;;;;;;5118127;27;20046;-70
2022/01/03 09:10:39;;;;;;;26.10;4.65;;;9.70;99.90;;;;;;5112425;27;20463;-71
2022/01/03 09:13:05;;;;;;;20.08;4.43;;;9.60;99.90;;;;;;5107950;27;20046;-69
2022/01/03 09:15:31;;;;;;;15.07;3.50;;;9.60;99.90;;;;;;5126780;27;20450;-71
2022/01/03 09:17:57;;;;;;;18.17;4.53;;;9.70;99.90;;;;;;5127115;27;20043;-69
2022/01/03 09:20:23;;;;;;;22.17;4.57;;;9.60;99.90;;;;;;5105250;27;20046;-70
2022/01/03 09:22:52;;;;;;;20.10;4.75;;;9.70;99.90;;;;;;5119285;27;20057;-71
2022/01/03 09:30:34;;;;;;;29.52;4.68;;;9.60;99.90;;;;;;5128797;27;20460;-69
2022/01/03 09:33:00;;;;;;;22.65;3.45;;;9.80;99.90;;;;;;5124965;27;20661;-72
2022/01/03 09:35:27;;;;;;;20.42;4.20;;;9.70;99.90;;;;;;5122203;27;20039;-69
2022/01/03 09:37:53;;;;;;;24.38;4.38;;;9.70;99.90;;;;;;5106382;27;20039;-71
2022/01/03 09:40:19;;;;;;;20.20;3.63;;;9.80;99.90;;;;;;5127356;27;20041;-70
2022/01/03 09:42:50;;;;;;;25.75;4.80;;;9.90;99.90;;;;;;5126707;27;20027;-69
2022/01/03 09:45:16;;;;;;;26.30;4.40;;;9.90;99.90;;;;;;5111445;27;20075;-71
2022/01/03 09:47:44;;;;;;;16.10;3.88;;;9.80;99.90;;;;;;5098683;27;20621;-72
2022/01/03 09:50:13;;;;;;;24.02;4.40;;;9.80;99.90;;;;;;5106388;27;20054;-71
2022/01/03 09:52:41;;;;;;;24.33;4.13;;;10.00;99.90;;;;;;5107853;27;20043;-73
2022/01/03 09:55:07;;;;;;;30.27;4.03;;;9.70;99.90;;;;;;5109838;27;20042;-72
2022/01/03 09:57:33;;;;;;;17.58;3.67;;;9.70;99.90;;;;;;5126253;27;20677;-69
2022/01/03 10:00:00;;;;;;;23.85;4.88;;;9.80;99.90;;;;;;5124631;27;20034;-70
2022/01/03 10:02:27;;;;;;;14.48;3.45;;;10.00;99.90;;;;;;5127088;27;20072;-72
2022/01/03 10:04:52;;;;;;;26.70;4.28;;;10.00;99.90;;;;;;5125468;27;20057;-70
2022/01/03 10:07:20;;;;;;;21.65;3.97;;;10.10;99.90;;;;;;5127297;27;20047;-72
2022/01/03 10:09:46;;;;;;;26.48;3.95;;;10.00;99.90;;;;;;5125703;27;20397;-71
2022/01/03 10:12:14;;;;;;;22.15;3.70;;;10.00;99.90;;;;;;5125758;27;20054;-71
2022/01/03 10:14:40;;;;;;;24.27;4.35;;;10.00;99.90;;;;;;5127306;27;20088;-72
2022/01/03 10:17:08;;;;;;;23.75;4.50;;;9.90;99.90;;;;;;5124884;27;20471;-71
2022/01/03 10:19:54;;;;;;;18.52;3.80;;;10.00;99.90;;;;;;5126040;27;20046;-70
2022/01/03 10:22:22;;;;;;;19.38;3.90;;;9.90;99.90;;;;;;5107515;27;20080;-72
2022/01/03 10:24:48;;;;;;;20.83;3.90;;;10.20;99.90;;;;;;5127403;27;20046;-71
2022/01/03 10:27:14;;;;;;;22.60;3.92;;;10.10;99.90;;;;;;5125826;27;20493;-71
2022/01/03 10:29:41;;;;;;;19.10;4.32;;;10.10;99.90;;;;;;5127160;27;20649;-71
2022/01/03 10:32:11;;;;;;;20.25;4.07;;;10.10;99.90;;;;;;5106355;27;20043;-72
2022/01/03 10:34:36;;;;;;;24.65;5.55;;;10.10;99.90;;;;;;5125140;27;20042;-70
2022/01/03 10:37:12;;;;;;;16.52;3.55;;;10.30;99.90;;;;;;5124937;27;20047;-73
2022/01/03 10:39:38;;;;;;;17.27;4.00;;;10.10;99.90;;;;;;5108370;27;20126;-70
2022/01/03 10:42:20;;;;;;;17.75;4.20;;;10.30;99.90;;;;;;5109577;27;20035;-71
2022/01/03 10:44:47;;;;;;;19.92;3.70;;;10.40;99.90;;;;;;5126607;27;20053;-73
2022/01/03 10:47:30;;;;;;;20.48;3.65;;;10.50;99.90;;;;;;5106648;27;20871;-71
2022/01/03 10:49:56;;;;;;;22.15;3.70;;;10.40;99.90;;;;;;5107090;27;20049;-72
2022/01/03 10:52:27;;;;;;;12.60;3.35;;;10.60;99.90;;;;;;5125985;27;20047;-71
2022/01/03 10:55:13;;;;;;;19.02;3.60;;;10.60;99.90;;;;;;5124204;27;20077;-71
2022/01/03 10:58:00;;;;;;;22.60;4.65;;;10.70;99.90;;;;;;5121145;27;20035;-70
2022/01/03 11:00:32;;;;;;;15.63;4.20;;;10.50;99.90;;;;;;5105632;27;20187;-71
2022/01/03 11:03:20;;;;;;;18.17;3.17;;;10.40;99.90;;;;;;5107918;27;20034;-72
2022/01/03 11:05:52;;;;;;;20.63;4.53;;;10.30;99.90;;;;;;5121669;27;20045;-71
2022/01/03 11:11:10;;;;;;;20.88;4.55;;;10.30;99.90;;;;;;5123777;27;20078;-70
2022/01/03 11:13:44;;;;;;;21.67;5.25;;;10.20;99.90;;;;;;5121743;27;20045;-72
2022/01/03 11:16:12;;;;;;;21.85;4.18;;;10.30;99.90;;;;;;5124751;27;20134;-73
2022/01/03 11:18:48;;;;;;;20.20;3.90;;;10.20;99.90;;;;;;5118654;27;20054;-70
2022/01/03 11:21:16;;;;;;;17.67;3.25;;;10.30;99.90;;;;;;5118477;27;20402;-71
2022/01/03 11:24:10;;;;;;;34.42;6.03;;;10.20;99.90;;;;;;5099387;27;20070;-71
2022/01/03 11:26:47;;;;;;;20.98;4.05;;;10.20;99.90;;;;;;5122328;27;20130;-71
2022/01/03 11:29:13;;;;;;;21.95;4.90;;;10.30;99.90;;;;;;5112583;27;20085;-70
2022/01/03 11:31:40;;;;;;;17.30;3.42;;;10.30;99.90;;;;;;5115097;27;20414;-74
2022/01/03 11:34:11;;;;;;;18.40;3.15;;;10.10;99.90;;;;;;5114829;27;20042;-69
2022/01/03 11:36:39;;;;;;;19.70;3.67;;;10.20;99.90;;;;;;5119599;27;20133;-71
2022/01/03 11:39:08;;;;;;;16.73;3.13;;;10.20;99.90;;;;;;5119708;27;20149;-73
2022/01/03 11:41:36;;;;;;;20.88;4.68;;;10.30;99.90;;;;;;5095650;27;20153;-72
2022/01/03 11:44:03;;;;;;;21.25;3.17;;;10.40;99.90;;;;;;5119192;27;20034;-71
2022/01/03 11:46:29;;;;;;;23.10;4.03;;;10.30;99.90;;;;;;5113732;28;20051;-68
2022/01/03 11:48:56;;;;;;;20.00;4.22;;;10.50;99.90;;;;;;5090336;28;20035;-73
2022/01/03 11:51:23;;;;;;;21.02;4.20;;;10.40;99.90;;;;;;5124008;27;20492;-71
2022/01/03 11:53:50;;;;;;;22.38;3.38;;;10.50;99.90;;;;;;5089686;27;20046;-70
2022/01/03 11:56:19;;;;;;;23.50;3.70;;;10.50;99.90;;;;;;5123490;27;20057;-71
2022/01/03 11:59:06;;;;;;;22.95;4.20;;;10.60;99.90;;;;;;5124456;27;20090;-72
2022/01/03 12:04:24;;;;;;;20.98;3.72;;;10.30;99.90;;;;;;5110375;27;20039;-73
2022/01/03 12:07:05;;;;;;;19.30;4.72;;;10.40;99.90;;;;;;5126899;27;20305;-73
2022/01/03 12:09:33;;;;;;;16.48;3.65;;;10.30;99.90;;;;;;5123251;27;20043;-71
2022/01/03 12:12:00;;;;;;;23.75;3.97;;;10.30;99.90;;;;;;5126815;27;20074;-74
2022/01/03 12:14:46;;;;;;;19.40;4.13;;;10.40;99.90;;;;;;5106944;27;20707;-71
2022/01/03 12:17:13;;;;;;;17.15;3.15;;;10.30;99.90;;;;;;5112532;27;20091;-70
2022/01/03 12:19:42;;;;;;;21.85;3.72;;;10.30;99.90;;;;;;5126329;27;20057;-72
2022/01/03 12:22:09;;;;;;;22.10;4.18;;;10.30;99.90;;;;;;5130464;27;20390;-71
2022/01/03 12:24:40;;;;;;;20.08;3.70;;;10.30;99.90;;;;;;5127449;27;20482;-72
2022/01/03 12:27:16;;;;;;;17.85;3.88;;;10.40;99.90;;;;;;5101790;27;20814;-71
2022/01/03 12:29:54;;;;;;;22.08;4.30;;;10.40;99.90;;;;;;5126181;27;20055;-73
2022/01/03 12:32:24;;;;;;;24.55;3.90;;;10.40;99.90;;;;;;5127491;27;20066;-71
2022/01/03 12:35:12;;;;;;;15.15;3.30;;;10.30;99.90;;;;;;5108068;27;20104;-69
2022/01/03 12:37:39;;;;;;;24.85;4.65;;;10.20;99.90;;;;;;5128125;27;20050;-71
2022/01/03 12:40:04;;;;;;;17.40;3.33;;;10.20;99.90;;;;;;5109209;27;20050;-69
2022/01/03 12:42:48;;;;;;;18.73;4.38;;;10.30;99.90;;;;;;5127468;27;20030;-71
2022/01/03 12:45:29;;;;;;;21.95;3.50;;;10.40;99.90;;;;;;5124316;27;20065;-71
2022/01/03 12:48:19;;;;;;;15.77;3.33;;;10.40;99.90;;;;;;5125636;27;20537;-71
2022/01/03 12:50:51;;;;;;;21.05;3.92;;;10.40;99.90;;;;;;5127168;27;20070;-70
2022/01/03 12:53:23;;;;;;;17.55;3.78;;;10.50;99.90;;;;;;5124973;27;20054;-68
2022/01/03 12:55:53;;;;;;;22.75;3.83;;;10.60;99.90;;;;;;5123830;27;20066;-69
2022/01/03 12:58:19;;;;;;;18.67;3.63;;;10.60;99.90;;;;;;5126317;27;20728;-69
2022/01/03 13:00:44;;;;;;;18.45;4.03;;;10.70;99.90;;;;;;5125619;27;20076;-72
2022/01/03 13:03:32;;;;;;;17.45;4.05;;;10.70;99.90;;;;;;5110593;27;20053;-72
2022/01/03 13:06:11;;;;;;;20.35;3.97;;;10.60;99.90;;;;;;5126737;27;20786;-69
2022/01/03 13:08:59;;;;;;;20.65;4.10;;;10.60;99.90;;;;;;5124521;27;20038;-69
2022/01/03 13:11:45;;;;;;;23.70;4.38;;;10.60;99.90;;;;;;5120429;27;20481;-71